createdAt,value
2023-03-12T00:09:12.095Z,16.08
2023-03-12T00:24:14.278Z,13.48
2023-03-12T00:39:16.206Z,10.95
2023-03-12T00:54:18.169Z,12.02
2023-03-12T01:09:20.329Z,13.18
2023-03-12T01:24:22.454Z,11.07
2023-03-12T01:39:25.898Z,8.23
2023-03-12T01:54:32.710Z,8.95
2023-03-12T02:09:38.549Z,9.67
2023-03-12T02:24:46.738Z,10.38
2023-03-12T02:39:56.311Z,5.88
2023-03-12T02:54:58.302Z,7.57
2023-03-12T03:10:04.554Z,5.78
2023-03-12T03:25:10.106Z,6.40
2023-03-12T03:40:12.618Z,7.38
2023-03-12T03:55:14.713Z,5.75
2023-03-12T04:10:16.675Z,6.07
2023-03-12T04:25:18.711Z,6.82
2023-03-12T04:40:20.885Z,5.30
2023-03-12T04:55:23.901Z,5.95
2023-03-12T05:10:25.962Z,6.55
2023-03-12T05:25:27.903Z,5.03
2023-03-12T05:40:30.125Z,7.50
2023-03-12T05:55:36.621Z,2.63
2023-03-12T06:10:39.459Z,4.38
2023-03-12T06:25:44.506Z,4.80
2023-03-12T06:41:01.257Z,4.38
2023-03-12T06:56:03.997Z,5.18
2023-03-12T07:11:05.932Z,4.18
2023-03-12T07:26:08.061Z,6.97
2023-03-12T07:41:10.171Z,6.82
2023-03-12T07:56:12.288Z,7.10
2023-03-12T08:11:14.381Z,4.55
2023-03-12T08:26:16.285Z,9.25
2023-03-12T08:41:18.631Z,6.80
2023-03-12T08:56:21.532Z,12.70
2023-03-12T09:11:23.607Z,8.43
2023-03-12T09:26:25.614Z,7.53
2023-03-12T09:41:35.064Z,7.43
2023-03-12T09:56:37.384Z,5.88
2023-03-12T10:12:19.516Z,7.43
2023-03-12T10:27:28.422Z,7.05
2023-03-12T10:42:31.960Z,7.03
2023-03-12T10:57:41.949Z,9.13
2023-03-12T11:13:05.636Z,6.90
2023-03-12T11:28:17.776Z,7.60
2023-03-12T11:43:43.604Z,7.93
2023-03-12T11:58:49.193Z,6.05
2023-03-12T12:14:18.143Z,5.07
2023-03-12T12:29:50.261Z,5.95
2023-03-12T12:44:55.404Z,7.82
2023-03-12T13:00:22.080Z,6.43
2023-03-12T13:15:29.784Z,7.47
2023-03-12T13:30:34.638Z,8.05
2023-03-12T13:45:55.396Z,5.47
2023-03-12T14:01:14.408Z,7.18
2023-03-12T14:16:19.142Z,6.35
2023-03-12T14:31:24.045Z,7.82
2023-03-12T14:46:26.093Z,9.82
2023-03-12T15:01:31.452Z,8.65
2023-03-12T15:16:34.237Z,9.60
2023-03-12T15:31:47.776Z,8.15
2023-03-12T15:46:54.406Z,6.45
2023-03-12T16:01:57.035Z,8.40
2023-03-12T16:16:59.225Z,12.73
2023-03-12T16:32:01.823Z,10.40
2023-03-12T16:47:03.883Z,9.32
2023-03-12T17:02:16.064Z,10.98
2023-03-12T17:17:18.493Z,11.13
2023-03-12T17:32:20.680Z,22.55
2023-03-12T17:47:23.350Z,34.58
2023-03-12T18:02:25.638Z,14.43
2023-03-12T18:17:27.725Z,15.50
2023-03-12T18:32:29.822Z,25.77
2023-03-12T18:47:32.914Z,16.40
2023-03-12T19:02:34.987Z,12.48
2023-03-12T19:17:37.061Z,25.65
2023-03-12T19:32:43.616Z,36.30
2023-03-12T19:47:46.024Z,14.88
2023-03-12T20:02:48.323Z,20.23
2023-03-12T20:17:50.417Z,20.60
2023-03-12T20:32:52.542Z,18.02
2023-03-12T20:47:55.144Z,18.85
2023-03-12T21:02:57.140Z,17.75
2023-03-12T21:17:59.116Z,17.42
2023-03-12T21:33:02.306Z,11.95
2023-03-12T21:48:04.638Z,10.43
2023-03-12T22:03:06.583Z,11.70
2023-03-12T22:18:08.600Z,18.60
2023-03-12T22:33:11.798Z,18.08
2023-03-12T22:48:13.728Z,12.70
2023-03-12T23:03:15.738Z,15.77
2023-03-12T23:18:18.480Z,15.50
2023-03-12T23:33:20.401Z,8.00
2023-03-12T23:48:22.491Z,6.65
